sensor_id;sensor_type;location;lat;lon;timestamp;pressure;altitude;pressure_sealevel;temperature;humidity
76590;BME280;65471;55.908;37.880;2023-04-24T00:01:21;99797.69;;;7.64;60.48
76590;BME280;65471;55.908;37.880;2023-04-24T00:03:48;99810.78;;;7.60;60.40
76590;BME280;65471;55.908;37.880;2023-04-24T00:06:15;99805.81;;;7.57;60.77
76590;BME280;65471;55.908;37.880;2023-04-24T00:08:43;99790.06;;;7.54;60.74
76590;BME280;65471;55.908;37.880;2023-04-24T00:11:10;99797.75;;;7.50;60.71
76590;BME280;65471;55.908;37.880;2023-04-24T00:13:37;99802.53;;;7.48;60.99
76590;BME280;65471;55.908;37.880;2023-04-24T00:16:04;99802.31;;;7.43;61.33
76590;BME280;65471;55.908;37.880;2023-04-24T00:18:32;99798.41;;;7.39;60.95
76590;BME280;65471;55.908;37.880;2023-04-24T00:20:59;99800.47;;;7.37;60.88
76590;BME280;65471;55.908;37.880;2023-04-24T00:23:26;99810.00;;;7.33;61.25
76590;BME280;65471;55.908;37.880;2023-04-24T00:25:53;99802.53;;;7.28;61.67
76590;BME280;65471;55.908;37.880;2023-04-24T00:28:20;99799.66;;;7.23;61.53
76590;BME280;65471;55.908;37.880;2023-04-24T00:30:46;99801.94;;;7.19;61.92
76590;BME280;65471;55.908;37.880;2023-04-24T00:33:13;99807.53;;;7.18;61.70
76590;BME280;65471;55.908;37.880;2023-04-24T00:35:40;99800.91;;;7.14;61.96
76590;BME280;65471;55.908;37.880;2023-04-24T00:38:07;99806.09;;;7.08;61.79
76590;BME280;65471;55.908;37.880;2023-04-24T00:40:34;99803.00;;;7.05;62.15
76590;BME280;65471;55.908;37.880;2023-04-24T00:43:01;99807.75;;;7.03;62.10
76590;BME280;65471;55.908;37.880;2023-04-24T00:45:27;99809.00;;;7.00;62.52
76590;BME280;65471;55.908;37.880;2023-04-24T00:47:54;99801.97;;;6.99;62.62
76590;BME280;65471;55.908;37.880;2023-04-24T00:50:22;99799.69;;;6.96;62.68
76590;BME280;65471;55.908;37.880;2023-04-24T00:52:50;99798.22;;;6.94;63.24
76590;BME280;65471;55.908;37.880;2023-04-24T00:55:17;99804.63;;;6.93;63.20
76590;BME280;65471;55.908;37.880;2023-04-24T00:57:45;99805.69;;;6.91;63.12
76590;BME280;65471;55.908;37.880;2023-04-24T01:00:12;99795.56;;;6.87;63.20
76590;BME280;65471;55.908;37.880;2023-04-24T01:02:40;99798.44;;;6.85;63.42
76590;BME280;65471;55.908;37.880;2023-04-24T01:05:15;99799.69;;;6.83;63.48
76590;BME280;65471;55.908;37.880;2023-04-24T01:07:45;99801.53;;;6.82;63.63
76590;BME280;65471;55.908;37.880;2023-04-24T01:10:14;99797.00;;;6.76;63.84
76590;BME280;65471;55.908;37.880;2023-04-24T01:12:41;99805.28;;;6.74;63.49
76590;BME280;65471;55.908;37.880;2023-04-24T01:15:08;99812.69;;;6.72;63.66
76590;BME280;65471;55.908;37.880;2023-04-24T01:17:35;99803.00;;;6.71;63.67
76590;BME280;65471;55.908;37.880;2023-04-24T01:20:03;99797.19;;;6.68;64.26
76590;BME280;65471;55.908;37.880;2023-04-24T01:22:35;99805.25;;;6.68;64.23
76590;BME280;65471;55.908;37.880;2023-04-24T01:25:02;99796.16;;;6.62;64.23
76590;BME280;65471;55.908;37.880;2023-04-24T01:27:30;99808.97;;;6.60;64.67
76590;BME280;65471;55.908;37.880;2023-04-24T01:29:57;99807.53;;;6.57;64.66
76590;BME280;65471;55.908;37.880;2023-04-24T01:32:24;99799.88;;;6.54;64.63
76590;BME280;65471;55.908;37.880;2023-04-24T01:34:51;99797.59;;;6.51;64.57
76590;BME280;65471;55.908;37.880;2023-04-24T01:37:19;99800.69;;;6.48;64.44
76590;BME280;65471;55.908;37.880;2023-04-24T01:39:45;99795.72;;;6.45;64.74
76590;BME280;65471;55.908;37.880;2023-04-24T01:42:12;99797.78;;;6.43;64.98
76590;BME280;65471;55.908;37.880;2023-04-24T01:44:39;99794.47;;;6.41;64.86
76590;BME280;65471;55.908;37.880;2023-04-24T01:47:07;99797.56;;;6.38;64.77
76590;BME280;65471;55.908;37.880;2023-04-24T01:49:34;99789.31;;;6.33;64.88
76590;BME280;65471;55.908;37.880;2023-04-24T01:52:01;99799.63;;;6.29;65.57
76590;BME280;65471;55.908;37.880;2023-04-24T01:54:27;99796.53;;;6.26;65.13
76590;BME280;65471;55.908;37.880;2023-04-24T01:56:54;99791.75;;;6.21;65.84
76590;BME280;65471;55.908;37.880;2023-04-24T01:59:22;99790.50;;;6.17;65.63
76590;BME280;65471;55.908;37.880;2023-04-24T02:01:49;99794.81;;;6.11;65.97
76590;BME280;65471;55.908;37.880;2023-04-24T02:04:16;99795.22;;;6.08;65.74
76590;BME280;65471;55.908;37.880;2023-04-24T02:06:43;99789.03;;;6.08;66.12
76590;BME280;65471;55.908;37.880;2023-04-24T02:09:10;99800.78;;;6.07;66.01
76590;BME280;65471;55.908;37.880;2023-04-24T02:11:37;99801.63;;;6.07;66.37
76590;BME280;65471;55.908;37.880;2023-04-24T02:14:04;99801.81;;;6.05;65.71
76590;BME280;65471;55.908;37.880;2023-04-24T02:16:30;99798.31;;;6.05;66.20
76590;BME280;65471;55.908;37.880;2023-04-24T02:18:59;99799.75;;;6.01;66.13
76590;BME280;65471;55.908;37.880;2023-04-24T02:21:26;99798.94;;;6.00;66.36
76590;BME280;65471;55.908;37.880;2023-04-24T02:23:54;99799.94;;;5.99;66.38
76590;BME280;65471;55.908;37.880;2023-04-24T02:26:20;99807.19;;;5.99;66.21
76590;BME280;65471;55.908;37.880;2023-04-24T02:28:47;99797.63;;;5.96;66.48
76590;BME280;65471;55.908;37.880;2023-04-24T02:31:14;99805.69;;;5.96;66.27
76590;BME280;65471;55.908;37.880;2023-04-24T02:33:41;99809.00;;;5.98;66.31
76590;BME280;65471;55.908;37.880;2023-04-24T02:36:08;99808.00;;;5.99;66.67
76590;BME280;65471;55.908;37.880;2023-04-24T02:38:34;99806.34;;;5.98;66.95
76590;BME280;65471;55.908;37.880;2023-04-24T02:41:01;99808.56;;;5.95;66.87
76590;BME280;65471;55.908;37.880;2023-04-24T02:43:28;99806.50;;;5.97;66.95
76590;BME280;65471;55.908;37.880;2023-04-24T02:45:55;99815.22;;;5.99;66.92
76590;BME280;65471;55.908;37.880;2023-04-24T02:48:22;99810.88;;;5.98;66.79
76590;BME280;65471;55.908;37.880;2023-04-24T02:50:49;99808.81;;;6.00;66.82
76590;BME280;65471;55.908;37.880;2023-04-24T02:53:17;99816.88;;;6.00;67.34
76590;BME280;65471;55.908;37.880;2023-04-24T02:55:44;99814.00;;;6.01;67.34
76590;BME280;65471;55.908;37.880;2023-04-24T02:58:11;99815.84;;;6.01;66.75
76590;BME280;65471;55.908;37.880;2023-04-24T03:00:39;99829.25;;;6.01;66.72
76590;BME280;65471;55.908;37.880;2023-04-24T03:03:06;99829.06;;;6.02;66.70
76590;BME280;65471;55.908;37.880;2023-04-24T03:05:33;99818.97;;;6.04;66.93
76590;BME280;65471;55.908;37.880;2023-04-24T03:08:00;99822.47;;;6.05;66.95
76590;BME280;65471;55.908;37.880;2023-04-24T03:10:27;99824.75;;;6.08;67.22
76590;BME280;65471;55.908;37.880;2023-04-24T03:12:54;99814.84;;;6.09;66.83
76590;BME280;65471;55.908;37.880;2023-04-24T03:15:21;99827.03;;;6.11;67.09
76590;BME280;65471;55.908;37.880;2023-04-24T03:17:48;99826.00;;;6.12;66.97
76590;BME280;65471;55.908;37.880;2023-04-24T03:20:15;99823.97;;;6.14;67.21
76590;BME280;65471;55.908;37.880;2023-04-24T03:23:01;99822.91;;;6.15;67.10
76590;BME280;65471;55.908;37.880;2023-04-24T03:25:28;99811.75;;;6.18;67.30
76590;BME280;65471;55.908;37.880;2023-04-24T03:27:54;99823.97;;;6.21;66.99
76590;BME280;65471;55.908;37.880;2023-04-24T03:30:21;99829.78;;;6.25;66.99
76590;BME280;65471;55.908;37.880;2023-04-24T03:32:48;99825.00;;;6.27;67.19
76590;BME280;65471;55.908;37.880;2023-04-24T03:35:15;99827.09;;;6.31;67.23
76590;BME280;65471;55.908;37.880;2023-04-24T03:37:42;99829.19;;;6.36;67.47
76590;BME280;65471;55.908;37.880;2023-04-24T03:40:09;99832.72;;;6.43;67.22
76590;BME280;65471;55.908;37.880;2023-04-24T03:42:35;99834.56;;;6.49;67.69
76590;BME280;65471;55.908;37.880;2023-04-24T03:45:05;99831.28;;;6.47;67.27
76590;BME280;65471;55.908;37.880;2023-04-24T03:47:32;99838.06;;;6.50;67.35
76590;BME280;65471;55.908;37.880;2023-04-24T03:49:58;99830.88;;;6.57;67.82
76590;BME280;65471;55.908;37.880;2023-04-24T03:52:25;99836.03;;;6.65;67.64
76590;BME280;65471;55.908;37.880;2023-04-24T03:54:52;99838.34;;;6.75;67.21
76590;BME280;65471;55.908;37.880;2023-04-24T03:57:19;99831.53;;;6.86;67.32
76590;BME280;65471;55.908;37.880;2023-04-24T03:59:46;99835.66;;;6.95;67.34
76590;BME280;65471;55.908;37.880;2023-04-24T04:02:12;99829.66;;;7.06;66.92
76590;BME280;65471;55.908;37.880;2023-04-24T04:04:39;99839.78;;;7.18;67.05
76590;BME280;65471;55.908;37.880;2023-04-24T04:07:06;99841.25;;;7.27;66.80
76590;BME280;65471;55.908;37.880;2023-04-24T04:09:34;99842.47;;;7.38;66.92
76590;BME280;65471;55.908;37.880;2023-04-24T04:12:01;99840.59;;;7.52;66.96
76590;BME280;65471;55.908;37.880;2023-04-24T04:14:27;99838.50;;;7.60;67.22
76590;BME280;65471;55.908;37.880;2023-04-24T04:16:54;99835.78;;;7.74;67.04
76590;BME280;65471;55.908;37.880;2023-04-24T04:19:22;99838.22;;;7.82;66.89
76590;BME280;65471;55.908;37.880;2023-04-24T04:21:48;99838.78;;;7.98;66.75
76590;BME280;65471;55.908;37.880;2023-04-24T04:24:19;99839.78;;;8.10;66.93
76590;BME280;65471;55.908;37.880;2023-04-24T04:26:47;99844.88;;;8.25;66.76
76590;BME280;65471;55.908;37.880;2023-04-24T04:29:14;99843.59;;;8.41;66.37
76590;BME280;65471;55.908;37.880;2023-04-24T04:31:44;99842.50;;;8.55;66.45
76590;BME280;65471;55.908;37.880;2023-04-24T04:34:11;99839.69;;;8.69;66.25
76590;BME280;65471;55.908;37.880;2023-04-24T04:36:39;99838.34;;;8.85;66.08
76590;BME280;65471;55.908;37.880;2023-04-24T04:39:25;99843.66;;;8.98;65.80
76590;BME280;65471;55.908;37.880;2023-04-24T04:41:52;99847.03;;;9.12;65.85
76590;BME280;65471;55.908;37.880;2023-04-24T04:44:19;99847.53;;;9.27;65.34
76590;BME280;65471;55.908;37.880;2023-04-24T04:46:46;99849.06;;;9.42;65.13
76590;BME280;65471;55.908;37.880;2023-04-24T04:49:13;99847.28;;;9.54;64.51
76590;BME280;65471;55.908;37.880;2023-04-24T04:51:43;99848.56;;;9.70;64.70
76590;BME280;65471;55.908;37.880;2023-04-24T04:54:09;99850.06;;;9.84;64.16
76590;BME280;65471;55.908;37.880;2023-04-24T04:56:36;99848.69;;;10.00;63.55
76590;BME280;65471;55.908;37.880;2023-04-24T04:59:03;99855.56;;;10.15;62.66
76590;BME280;65471;55.908;37.880;2023-04-24T05:01:30;99852.84;;;10.33;62.75
76590;BME280;65471;55.908;37.880;2023-04-24T05:03:57;99846.56;;;10.51;62.21
76590;BME280;65471;55.908;37.880;2023-04-24T05:06:24;99845.13;;;10.67;61.76
76590;BME280;65471;55.908;37.880;2023-04-24T05:08:51;99845.88;;;10.86;61.43
76590;BME280;65471;55.908;37.880;2023-04-24T05:11:22;99837.91;;;11.03;60.62
76590;BME280;65471;55.908;37.880;2023-04-24T05:13:49;99846.41;;;11.19;60.86
76590;BME280;65471;55.908;37.880;2023-04-24T05:16:16;99846.53;;;11.36;59.80
76590;BME280;65471;55.908;37.880;2023-04-24T05:18:43;99846.41;;;11.54;59.61
76590;BME280;65471;55.908;37.880;2023-04-24T05:21:10;99848.13;;;11.72;58.76
76590;BME280;65471;55.908;37.880;2023-04-24T05:23:36;99844.63;;;11.96;58.42
76590;BME280;65471;55.908;37.880;2023-04-24T05:26:03;99843.84;;;12.12;57.87
76590;BME280;65471;55.908;37.880;2023-04-24T05:28:33;99842.38;;;12.33;57.46
76590;BME280;65471;55.908;37.880;2023-04-24T05:30:59;99850.41;;;12.57;56.29
76590;BME280;65471;55.908;37.880;2023-04-24T05:33:27;99842.06;;;12.75;55.29
76590;BME280;65471;55.908;37.880;2023-04-24T05:35:54;99836.63;;;12.92;54.15
76590;BME280;65471;55.908;37.880;2023-04-24T05:38:21;99839.44;;;13.15;52.24
76590;BME280;65471;55.908;37.880;2023-04-24T05:40:48;99839.31;;;13.38;51.44
76590;BME280;65471;55.908;37.880;2023-04-24T05:43:14;99840.66;;;13.58;51.23
76590;BME280;65471;55.908;37.880;2023-04-24T05:45:41;99843.84;;;13.72;50.55
76590;BME280;65471;55.908;37.880;2023-04-24T05:48:08;99847.03;;;13.86;49.84
76590;BME280;65471;55.908;37.880;2023-04-24T05:50:35;99841.28;;;14.04;47.13
76590;BME280;65471;55.908;37.880;2023-04-24T05:53:03;99842.03;;;14.44;44.74
76590;BME280;65471;55.908;37.880;2023-04-24T05:55:30;99838.19;;;14.67;42.59
76590;BME280;65471;55.908;37.880;2023-04-24T05:57:58;99841.97;;;14.93;41.66
76590;BME280;65471;55.908;37.880;2023-04-24T06:00:25;99839.97;;;15.16;40.48
76590;BME280;65471;55.908;37.880;2023-04-24T06:02:52;99836.31;;;15.38;39.97
76590;BME280;65471;55.908;37.880;2023-04-24T06:05:20;99830.75;;;15.60;40.19
76590;BME280;65471;55.908;37.880;2023-04-24T06:07:47;99834.09;;;15.72;40.37
76590;BME280;65471;55.908;37.880;2023-04-24T06:10:14;99824.91;;;15.83;39.67
76590;BME280;65471;55.908;37.880;2023-04-24T06:12:42;99836.44;;;16.01;38.14
76590;BME280;65471;55.908;37.880;2023-04-24T06:15:09;99830.47;;;16.09;39.11
76590;BME280;65471;55.908;37.880;2023-04-24T06:17:36;99825.03;;;16.19;38.44
76590;BME280;65471;55.908;37.880;2023-04-24T06:20:03;99820.72;;;16.34;38.24
76590;BME280;65471;55.908;37.880;2023-04-24T06:22:32;99832.75;;;16.48;37.79
76590;BME280;65471;55.908;37.880;2023-04-24T06:24:59;99822.16;;;16.62;36.58
76590;BME280;65471;55.908;37.880;2023-04-24T06:27:27;99824.59;;;16.74;35.49
76590;BME280;65471;55.908;37.880;2023-04-24T06:29:54;99827.91;;;16.86;34.65
76590;BME280;65471;55.908;37.880;2023-04-24T06:32:23;99832.03;;;17.04;35.09
76590;BME280;65471;55.908;37.880;2023-04-24T06:34:51;99821.38;;;17.18;35.01
76590;BME280;65471;55.908;37.880;2023-04-24T06:37:19;99826.81;;;17.29;34.39
76590;BME280;65471;55.908;37.880;2023-04-24T06:39:47;99822.97;;;17.40;34.76
76590;BME280;65471;55.908;37.880;2023-04-24T06:42:14;99823.25;;;17.49;34.21
76590;BME280;65471;55.908;37.880;2023-04-24T06:44:41;99825.13;;;17.64;34.04
76590;BME280;65471;55.908;37.880;2023-04-24T06:47:08;99828.06;;;17.83;33.46
76590;BME280;65471;55.908;37.880;2023-04-24T06:49:39;99827.25;;;17.92;33.53
76590;BME280;65471;55.908;37.880;2023-04-24T06:52:06;99817.31;;;18.07;32.43
76590;BME280;65471;55.908;37.880;2023-04-24T06:54:33;99828.75;;;18.24;32.20
76590;BME280;65471;55.908;37.880;2023-04-24T06:57:00;99826.19;;;18.43;31.31
76590;BME280;65471;55.908;37.880;2023-04-24T06:59:29;99836.25;;;18.53;31.32
76590;BME280;65471;55.908;37.880;2023-04-24T07:01:56;99829.06;;;18.62;30.41
76590;BME280;65471;55.908;37.880;2023-04-24T07:04:23;99832.28;;;18.75;31.00
76590;BME280;65471;55.908;37.880;2023-04-24T07:06:52;99832.53;;;18.78;31.36
76590;BME280;65471;55.908;37.880;2023-04-24T07:09:23;99836.59;;;18.81;29.91
76590;BME280;65471;55.908;37.880;2023-04-24T07:11:51;99831.97;;;18.82;30.98
76590;BME280;65471;55.908;37.880;2023-04-24T07:14:18;99831.09;;;18.86;30.07
76590;BME280;65471;55.908;37.880;2023-04-24T07:16:45;99842.00;;;18.96;29.70
76590;BME280;65471;55.908;37.880;2023-04-24T07:19:13;99832.09;;;19.06;29.17
76590;BME280;65471;55.908;37.880;2023-04-24T07:21:40;99838.91;;;19.08;29.47
76590;BME280;65471;55.908;37.880;2023-04-24T07:24:07;99846.88;;;19.05;28.23
76590;BME280;65471;55.908;37.880;2023-04-24T07:26:38;99839.81;;;18.99;28.48
76590;BME280;65471;55.908;37.880;2023-04-24T07:29:06;99838.38;;;19.06;29.14
76590;BME280;65471;55.908;37.880;2023-04-24T07:31:33;99832.00;;;19.16;29.87
76590;BME280;65471;55.908;37.880;2023-04-24T07:34:01;99832.38;;;19.34;29.89
76590;BME280;65471;55.908;37.880;2023-04-24T07:36:27;99839.38;;;19.45;27.56
76590;BME280;65471;55.908;37.880;2023-04-24T07:38:55;99834.97;;;19.49;27.85
76590;BME280;65471;55.908;37.880;2023-04-24T07:41:23;99825.97;;;19.43;28.18
76590;BME280;65471;55.908;37.880;2023-04-24T07:43:51;99836.47;;;19.36;28.43
76590;BME280;65471;55.908;37.880;2023-04-24T07:46:19;99828.63;;;19.24;28.32
76590;BME280;65471;55.908;37.880;2023-04-24T07:48:46;99829.44;;;19.25;28.62
76590;BME280;65471;55.908;37.880;2023-04-24T07:51:31;99830.75;;;19.33;28.37
76590;BME280;65471;55.908;37.880;2023-04-24T07:53:59;99820.75;;;19.47;28.92
76590;BME280;65471;55.908;37.880;2023-04-24T07:56:25;99835.69;;;19.60;28.68
76590;BME280;65471;55.908;37.880;2023-04-24T07:58:53;99826.81;;;19.68;27.65
76590;BME280;65471;55.908;37.880;2023-04-24T08:01:20;99833.50;;;19.86;27.68
76590;BME280;65471;55.908;37.880;2023-04-24T08:03:47;99830.06;;;19.99;27.56
76590;BME280;65471;55.908;37.880;2023-04-24T08:06:14;99820.41;;;20.02;27.46
76590;BME280;65471;55.908;37.880;2023-04-24T08:08:41;99809.66;;;20.06;27.41
76590;BME280;65471;55.908;37.880;2023-04-24T08:11:08;99819.09;;;20.18;27.32
76590;BME280;65471;55.908;37.880;2023-04-24T08:13:35;99810.22;;;20.27;26.95
76590;BME280;65471;55.908;37.880;2023-04-24T08:16:02;99817.19;;;20.38;26.78
76590;BME280;65471;55.908;37.880;2023-04-24T08:18:29;99804.22;;;20.44;27.12
76590;BME280;65471;55.908;37.880;2023-04-24T08:20:56;99810.66;;;20.53;28.16
76590;BME280;65471;55.908;37.880;2023-04-24T08:23:28;99810.16;;;20.70;27.40
76590;BME280;65471;55.908;37.880;2023-04-24T08:25:56;99807.97;;;20.86;26.48
76590;BME280;65471;55.908;37.880;2023-04-24T08:28:23;99802.91;;;20.93;26.21
76590;BME280;65471;55.908;37.880;2023-04-24T08:30:50;99813.22;;;21.01;27.22
76590;BME280;65471;55.908;37.880;2023-04-24T08:33:24;99805.22;;;21.05;26.37
76590;BME280;65471;55.908;37.880;2023-04-24T08:35:52;99808.94;;;20.95;25.66
76590;BME280;65471;55.908;37.880;2023-04-24T08:38:19;99816.31;;;20.81;25.60
76590;BME280;65471;55.908;37.880;2023-04-24T08:40:47;99801.00;;;20.75;26.67
76590;BME280;65471;55.908;37.880;2023-04-24T08:43:16;99804.78;;;20.60;26.33
76590;BME280;65471;55.908;37.880;2023-04-24T08:45:43;99810.75;;;20.48;26.91
76590;BME280;65471;55.908;37.880;2023-04-24T08:48:11;99807.19;;;20.28;26.85
76590;BME280;65471;55.908;37.880;2023-04-24T08:50:57;99799.00;;;20.23;27.09
76590;BME280;65471;55.908;37.880;2023-04-24T08:53:25;99802.13;;;20.35;26.01
76590;BME280;65471;55.908;37.880;2023-04-24T08:55:54;99794.69;;;20.17;26.10
76590;BME280;65471;55.908;37.880;2023-04-24T08:58:25;99796.53;;;20.03;26.62
76590;BME280;65471;55.908;37.880;2023-04-24T09:00:56;99795.44;;;20.23;27.13
76590;BME280;65471;55.908;37.880;2023-04-24T09:03:24;99788.97;;;20.51;27.33
76590;BME280;65471;55.908;37.880;2023-04-24T09:05:52;99783.28;;;20.67;26.97
76590;BME280;65471;55.908;37.880;2023-04-24T09:08:19;99777.09;;;20.56;26.49
76590;BME280;65471;55.908;37.880;2023-04-24T09:10:47;99779.91;;;20.32;27.22
76590;BME280;65471;55.908;37.880;2023-04-24T09:13:18;99778.47;;;20.40;26.84
76590;BME280;65471;55.908;37.880;2023-04-24T09:15:45;99776.59;;;20.54;26.35
76590;BME280;65471;55.908;37.880;2023-04-24T09:18:12;99794.31;;;20.62;26.43
76590;BME280;65471;55.908;37.880;2023-04-24T09:21:15;99779.56;;;20.77;26.22
76590;BME280;65471;55.908;37.880;2023-04-24T09:23:42;99761.13;;;21.10;26.65
76590;BME280;65471;55.908;37.880;2023-04-24T09:26:09;99765.25;;;21.41;26.99
76590;BME280;65471;55.908;37.880;2023-04-24T09:28:39;99771.69;;;21.64;25.32
76590;BME280;65471;55.908;37.880;2023-04-24T09:31:09;99773.94;;;21.76;26.01
76590;BME280;65471;55.908;37.880;2023-04-24T09:33:36;99770.16;;;21.85;25.54
76590;BME280;65471;55.908;37.880;2023-04-24T09:36:03;99764.66;;;21.85;25.08
76590;BME280;65471;55.908;37.880;2023-04-24T09:38:35;99766.59;;;21.85;25.47
76590;BME280;65471;55.908;37.880;2023-04-24T09:41:05;99765.13;;;21.87;24.84
76590;BME280;65471;55.908;37.880;2023-04-24T09:43:32;99761.16;;;22.08;24.99
76590;BME280;65471;55.908;37.880;2023-04-24T09:46:07;99754.13;;;22.52;24.65
76590;BME280;65471;55.908;37.880;2023-04-24T09:48:36;99749.03;;;22.68;24.16
76590;BME280;65471;55.908;37.880;2023-04-24T09:51:05;99754.94;;;23.29;24.32
76590;BME280;65471;55.908;37.880;2023-04-24T09:53:38;99754.97;;;23.38;23.33
76590;BME280;65471;55.908;37.880;2023-04-24T09:56:09;99753.44;;;23.23;23.05
76590;BME280;65471;55.908;37.880;2023-04-24T09:58:36;99744.91;;;23.10;23.02
76590;BME280;65471;55.908;37.880;2023-04-24T10:01:03;99749.06;;;22.99;23.50
76590;BME280;65471;55.908;37.880;2023-04-24T10:03:31;99747.66;;;22.79;23.64
76590;BME280;65471;55.908;37.880;2023-04-24T10:06:00;99749.00;;;22.59;23.65
76590;BME280;65471;55.908;37.880;2023-04-24T10:08:33;99749.84;;;22.46;24.16
76590;BME280;65471;55.908;37.880;2023-04-24T10:11:01;99740.06;;;22.39;24.13
76590;BME280;65471;55.908;37.880;2023-04-24T10:13:28;99734.84;;;22.52;24.55
76590;BME280;65471;55.908;37.880;2023-04-24T10:15:56;99737.50;;;22.66;24.50
76590;BME280;65471;55.908;37.880;2023-04-24T10:18:24;99735.69;;;22.84;24.09
76590;BME280;65471;55.908;37.880;2023-04-24T10:20:52;99735.91;;;23.19;23.66
76590;BME280;65471;55.908;37.880;2023-04-24T10:23:21;99739.09;;;23.43;23.58
76590;BME280;65471;55.908;37.880;2023-04-24T10:25:50;99740.50;;;23.81;22.48
76590;BME280;65471;55.908;37.880;2023-04-24T10:28:18;99729.34;;;24.04;22.45
76590;BME280;65471;55.908;37.880;2023-04-24T10:30:46;99732.13;;;24.12;22.73
76590;BME280;65471;55.908;37.880;2023-04-24T10:33:14;99727.09;;;24.67;21.91
76590;BME280;65471;55.908;37.880;2023-04-24T10:35:45;99725.75;;;24.82;22.49
76590;BME280;65471;55.908;37.880;2023-04-24T10:38:13;99722.38;;;24.68;22.15
76590;BME280;65471;55.908;37.880;2023-04-24T10:40:40;99721.25;;;24.07;21.80
76590;BME280;65471;55.908;37.880;2023-04-24T10:43:08;99721.75;;;23.52;22.58
76590;BME280;65471;55.908;37.880;2023-04-24T10:45:39;99720.16;;;23.19;23.40
76590;BME280;65471;55.908;37.880;2023-04-24T10:48:07;99717.34;;;23.10;23.20
76590;BME280;65471;55.908;37.880;2023-04-24T10:50:52;99713.72;;;23.01;23.96
76590;BME280;65471;55.908;37.880;2023-04-24T10:53:21;99706.00;;;22.81;23.49
76590;BME280;65471;55.908;37.880;2023-04-24T10:56:07;99709.78;;;22.62;24.05
76590;BME280;65471;55.908;37.880;2023-04-24T10:58:38;99719.72;;;22.72;23.91
76590;BME280;65471;55.908;37.880;2023-04-24T11:01:06;99701.69;;;22.97;23.32
76590;BME280;65471;55.908;37.880;2023-04-24T11:03:35;99686.09;;;23.24;23.97
76590;BME280;65471;55.908;37.880;2023-04-24T11:06:04;99702.22;;;23.39;23.25
76590;BME280;65471;55.908;37.880;2023-04-24T11:08:39;99700.31;;;23.49;22.97
76590;BME280;65471;55.908;37.880;2023-04-24T11:11:17;99695.31;;;23.68;22.40
76590;BME280;65471;55.908;37.880;2023-04-24T11:18:52;99694.56;;;23.27;23.51
76590;BME280;65471;55.908;37.880;2023-04-24T11:21:22;99677.34;;;23.22;24.18
76590;BME280;65471;55.908;37.880;2023-04-24T11:23:49;99684.84;;;23.30;23.97
76590;BME280;65471;55.908;37.880;2023-04-24T11:26:26;99680.81;;;23.36;24.20
76590;BME280;65471;55.908;37.880;2023-04-24T11:29:07;99678.94;;;23.23;23.66
76590;BME280;65471;55.908;37.880;2023-04-24T11:31:39;99671.47;;;23.15;22.41
76590;BME280;65471;55.908;37.880;2023-04-24T11:34:13;99668.03;;;23.09;22.22
76590;BME280;65471;55.908;37.880;2023-04-24T11:36:46;99671.59;;;23.09;22.93
76590;BME280;65471;55.908;37.880;2023-04-24T11:39:14;99669.94;;;23.08;23.11
76590;BME280;65471;55.908;37.880;2023-04-24T11:41:41;99668.81;;;23.09;23.26
76590;BME280;65471;55.908;37.880;2023-04-24T11:44:09;99673.34;;;23.05;22.57
76590;BME280;65471;55.908;37.880;2023-04-24T11:46:36;99670.69;;;22.91;22.71
76590;BME280;65471;55.908;37.880;2023-04-24T11:49:07;99661.59;;;22.91;21.95
76590;BME280;65471;55.908;37.880;2023-04-24T11:51:34;99661.28;;;22.92;22.42
76590;BME280;65471;55.908;37.880;2023-04-24T11:54:18;99645.69;;;22.88;22.26
76590;BME280;65471;55.908;37.880;2023-04-24T11:56:46;99649.28;;;22.97;22.96
76590;BME280;65471;55.908;37.880;2023-04-24T11:59:14;99638.72;;;23.22;22.35
76590;BME280;65471;55.908;37.880;2023-04-24T12:01:44;99640.53;;;23.35;22.18
76590;BME280;65471;55.908;37.880;2023-04-24T12:04:12;99648.00;;;23.35;22.56
76590;BME280;65471;55.908;37.880;2023-04-24T12:06:40;99638.69;;;23.88;21.68
76590;BME280;65471;55.908;37.880;2023-04-24T12:09:06;99639.66;;;24.27;21.82
76590;BME280;65471;55.908;37.880;2023-04-24T12:11:55;99629.66;;;24.70;21.37
76590;BME280;65471;55.908;37.880;2023-04-24T12:14:23;99627.50;;;24.85;21.48
76590;BME280;65471;55.908;37.880;2023-04-24T12:16:51;99614.09;;;24.39;22.15
76590;BME280;65471;55.908;37.880;2023-04-24T12:19:21;99614.00;;;24.09;21.97
76590;BME280;65471;55.908;37.880;2023-04-24T12:22:02;99628.44;;;24.24;21.83
76590;BME280;65471;55.908;37.880;2023-04-24T12:24:30;99623.66;;;24.59;21.06
76590;BME280;65471;55.908;37.880;2023-04-24T12:26:57;99618.13;;;25.07;20.32
76590;BME280;65471;55.908;37.880;2023-04-24T12:29:24;99618.91;;;25.16;19.99
76590;BME280;65471;55.908;37.880;2023-04-24T12:31:51;99617.44;;;24.80;20.14
76590;BME280;65471;55.908;37.880;2023-04-24T12:34:19;99615.59;;;24.93;20.40
76590;BME280;65471;55.908;37.880;2023-04-24T12:36:47;99613.78;;;24.97;19.97
76590;BME280;65471;55.908;37.880;2023-04-24T12:39:18;99631.13;;;25.45;20.23
76590;BME280;65471;55.908;37.880;2023-04-24T12:41:56;99619.41;;;25.09;19.68
76590;BME280;65471;55.908;37.880;2023-04-24T12:44:35;99617.22;;;24.29;20.39
76590;BME280;65471;55.908;37.880;2023-04-24T12:47:03;99614.66;;;23.89;20.94
76590;BME280;65471;55.908;37.880;2023-04-24T12:49:30;99603.91;;;23.70;21.52
76590;BME280;65471;55.908;37.880;2023-04-24T12:51:57;99618.06;;;23.86;21.94
76590;BME280;65471;55.908;37.880;2023-04-24T12:54:24;99606.84;;;23.73;21.71
76590;BME280;65471;55.908;37.880;2023-04-24T12:56:51;99607.31;;;23.49;21.92
76590;BME280;65471;55.908;37.880;2023-04-24T12:59:18;99616.03;;;23.42;21.91
76590;BME280;65471;55.908;37.880;2023-04-24T13:01:44;99614.72;;;23.31;21.47
76590;BME280;65471;55.908;37.880;2023-04-24T13:04:12;99605.13;;;23.20;21.66